Time;durP1;ratioP1;P1;durP2;ratioP2;P2;SDS_P1;SDS_P2;PMS_P1;PMS_P2;Temp;Humidity;BMP_temperature;BMP_pressure;BME280_temperature;BME280_humidity;BME280_pressure;Samples;Min_cycle;Max_cycle;Signal;HPM_P1;HPM_P2
2022/06/17 00:00:21;;;;;;;;;;;13.00;74.70;;;;;;5056462;28;20282;-72
2022/06/17 00:02:48;;;;;;;;;;;13.10;74.80;;;;;;5074756;28;19916;-72
2022/06/17 00:05:15;;;;;;;;;;;13.10;74.70;;;;;;5028062;28;20008;-72
2022/06/17 00:07:41;;;;;;;;;;;13.20;74.50;;;;;;5074443;28;19913;-72
2022/06/17 00:10:26;;;;;;;;;;;13.20;74.40;;;;;;5056483;28;19912;-73
2022/06/17 00:12:52;;;;;;;;;;;13.20;74.30;;;;;;5051278;28;20006;-73
2022/06/17 00:15:19;;;;;;;;;;;13.20;74.20;;;;;;5056391;28;19919;-72
2022/06/17 00:17:55;;;;;;;;;;;13.20;74.00;;;;;;5056537;28;19916;-72
2022/06/17 10:37:08;;;;;;;;;;;14.80;69.70;;;;;;5052628;28;20024;-72
2022/06/17 10:39:35;;;;;;;;;;;14.80;69.80;;;;;;5055823;28;19921;-70
2022/06/17 10:42:01;;;;;;;;;;;14.80;69.60;;;;;;5043153;28;20417;-69
2022/06/17 10:44:28;;;;;;;;;;;14.70;69.60;;;;;;5039160;28;19921;-71
2022/06/17 10:46:57;;;;;;;;;;;14.70;69.30;;;;;;5049243;28;19916;-72
2022/06/17 10:49:26;;;;;;;;;;;14.70;69.30;;;;;;5038127;28;20279;-73
2022/06/17 10:51:54;;;;;;;;;;;14.70;69.10;;;;;;5057578;28;20307;-72
2022/06/17 10:54:30;;;;;;;;;;;14.70;69.00;;;;;;5048869;28;19913;-72
2022/06/17 10:57:07;;;;;;;;;;;14.70;69.20;;;;;;5064690;28;19960;-71
2022/06/17 10:59:34;;;;;;;;;;;14.60;69.00;;;;;;5047712;28;20379;-72
2022/06/17 11:02:00;;;;;;;;;;;14.60;69.10;;;;;;5046330;28;19921;-72
2022/06/17 11:04:34;;;;;;;;;;;14.60;69.20;;;;;;5046939;28;20647;-73
2022/06/17 11:07:02;;;;;;;;;;;14.60;69.50;;;;;;5054378;28;19949;-73
2022/06/17 11:09:31;;;;;;;;;;;14.50;69.70;;;;;;5065358;28;20331;-73
2022/06/17 11:12:05;;;;;;;;;;;14.50;69.80;;;;;;5026161;28;19917;-71
2022/06/17 11:14:32;;;;;;;;;;;14.50;69.80;;;;;;5031184;28;19959;-72
2022/06/17 11:16:58;;;;;;;;;;;14.50;70.00;;;;;;5064397;28;20010;-72
2022/06/17 11:19:26;;;;;;;;;;;14.50;70.10;;;;;;5050845;28;19920;-71
2022/06/17 11:21:54;;;;;;;;;;;14.40;70.10;;;;;;5069038;28;20289;-71
2022/06/17 11:24:26;;;;;;;;;;;14.40;70.10;;;;;;5041896;28;19970;-72
2022/06/17 11:27:04;;;;;;;;;;;14.30;70.00;;;;;;5048859;28;19916;-72
2022/06/17 11:29:44;;;;;;;;;;;14.30;70.00;;;;;;5068702;28;20281;-71
2022/06/17 11:32:20;;;;;;;;;;;14.30;70.20;;;;;;5032238;28;19920;-71
2022/06/17 11:35:06;;;;;;;;;;;14.30;70.10;;;;;;5047695;28;19917;-71
2022/06/17 12:03:31;;;;;;;;;;;14.20;70.90;;;;;;5057734;28;20492;-73
2022/06/17 12:05:59;;;;;;;;;;;14.20;70.90;;;;;;5050019;28;19932;-71
2022/06/17 12:08:28;;;;;;;;;;;14.20;70.90;;;;;;5051793;28;19917;-71
2022/06/17 12:10:54;;;;;;;;;;;14.10;70.90;;;;;;5028516;28;20419;-71
2022/06/17 12:13:40;;;;;;;;;;;14.10;70.90;;;;;;5027126;28;19920;-72
2022/06/17 12:16:14;;;;;;;;;;;14.10;71.00;;;;;;5031907;28;19919;-69
2022/06/17 12:19:02;;;;;;;;;;;14.00;71.20;;;;;;5032817;28;19912;-69
2022/06/17 12:21:44;;;;;;;;;;;14.00;71.30;;;;;;5040616;28;19909;-70
2022/06/17 12:24:27;;;;;;;;;;;14.00;71.30;;;;;;5051045;28;19909;-71
2022/06/17 12:27:06;;;;;;;;;;;14.00;71.40;;;;;;5056219;28;20338;-69
2022/06/17 12:29:32;;;;;;;;;;;14.00;71.50;;;;;;5032552;28;19929;-70
2022/06/17 12:32:00;;;;;;;;;;;14.00;71.60;;;;;;5046544;28;19912;-71
2022/06/17 12:34:36;;;;;;;;;;;14.00;71.80;;;;;;5032184;28;19917;-71
2022/06/17 12:37:13;;;;;;;;;;;13.90;72.00;;;;;;5049486;28;19927;-69
2022/06/17 12:39:42;;;;;;;;;;;13.90;72.30;;;;;;5032252;28;20420;-69
2022/06/17 12:42:13;;;;;;;;;;;14.00;72.30;;;;;;5031967;28;19919;-69
2022/06/17 12:44:42;;;;;;;;;;;14.00;72.40;;;;;;5050036;28;19925;-69
2022/06/17 12:47:27;;;;;;;;;;;14.00;72.30;;;;;;5033201;28;20256;-70
2022/06/17 12:53:14;;;;;;;;;;;13.90;72.70;;;;;;5048750;28;19928;-69
2022/06/17 12:55:44;;;;;;;;;;;13.80;72.90;;;;;;5045557;28;20003;-69
2022/06/17 12:58:19;;;;;;;;;;;13.80;73.00;;;;;;5052719;28;19919;-69
2022/06/17 13:00:48;;;;;;;;;;;13.80;73.10;;;;;;5046105;28;19912;-69
2022/06/17 13:14:48;;;;;;;;;;;13.70;74.20;;;;;;5059273;28;19932;-70
2022/06/17 13:17:23;;;;;;;;;;;13.70;74.20;;;;;;5066285;28;20278;-70
2022/06/17 13:19:58;;;;;;;;;;;13.70;74.20;;;;;;5073172;28;19956;-70
2022/06/17 13:22:25;;;;;;;;;;;13.70;74.40;;;;;;5081935;28;19917;-70
2022/06/17 13:24:54;;;;;;;;;;;13.70;74.50;;;;;;5073038;28;20826;-70
2022/06/17 13:27:36;;;;;;;;;;;13.70;74.60;;;;;;5056441;28;19924;-70
2022/06/17 13:30:03;;;;;;;;;;;13.70;74.80;;;;;;5073523;28;19924;-70
2022/06/17 13:32:31;;;;;;;;;;;13.70;74.80;;;;;;5084996;28;20399;-70
2022/06/17 13:35:01;;;;;;;;;;;13.70;74.90;;;;;;5063073;28;19916;-69
2022/06/17 13:37:35;;;;;;;;;;;13.60;74.90;;;;;;5070550;28;19920;-69
2022/06/17 13:40:11;;;;;;;;;;;13.70;75.10;;;;;;5036024;28;19962;-69
2022/06/17 13:42:38;;;;;;;;;;;13.60;75.20;;;;;;5073073;28;19915;-70
2022/06/17 13:45:10;;;;;;;;;;;13.60;75.40;;;;;;5046343;28;19919;-70
2022/06/17 13:47:37;;;;;;;;;;;13.60;75.60;;;;;;5068320;28;19919;-70
2022/06/17 13:50:09;;;;;;;;;;;13.60;75.80;;;;;;5069975;28;19967;-70
2022/06/17 13:52:36;;;;;;;;;;;13.60;75.70;;;;;;5051757;28;19912;-70
2022/06/17 13:55:08;;;;;;;;;;;13.60;75.80;;;;;;5053953;28;19919;-69
2022/06/17 13:57:35;;;;;;;;;;;13.60;75.80;;;;;;5069417;28;19912;-70
2022/06/17 14:00:26;;;;;;;;;;;13.50;75.80;;;;;;5068047;28;19912;-72
2022/06/17 14:02:55;;;;;;;;;;;13.60;75.80;;;;;;5071697;28;19913;-70
2022/06/17 14:05:24;;;;;;;;;;;13.60;76.00;;;;;;5054466;28;19912;-70
2022/06/17 14:08:08;;;;;;;;;;;13.50;76.10;;;;;;5053776;28;19913;-70
2022/06/17 14:10:36;;;;;;;;;;;13.50;76.00;;;;;;5071983;28;19928;-70
2022/06/17 14:13:20;;;;;;;;;;;13.50;76.00;;;;;;5037977;28;20386;-70
2022/06/17 14:15:48;;;;;;;;;;;13.50;75.90;;;;;;5053785;28;19982;-70
2022/06/17 14:18:19;;;;;;;;;;;13.50;75.90;;;;;;5064162;28;20280;-70
2022/06/17 14:20:46;;;;;;;;;;;13.40;75.90;;;;;;5083371;28;20328;-70
2022/06/17 14:23:12;;;;;;;;;;;13.40;75.80;;;;;;5054494;28;20363;-70
2022/06/17 14:25:46;;;;;;;;;;;13.30;75.60;;;;;;5071802;28;19908;-70
2022/06/17 14:28:42;;;;;;;;;;;13.30;75.70;;;;;;5066233;28;19913;-70
2022/06/17 14:31:09;;;;;;;;;;;13.20;75.80;;;;;;5057646;28;20286;-70
2022/06/17 14:33:40;;;;;;;;;;;13.20;75.90;;;;;;5065899;28;20011;-70
2022/06/17 14:36:14;;;;;;;;;;;13.20;76.00;;;;;;5053949;28;19913;-70
2022/06/17 14:38:43;;;;;;;;;;;13.20;76.20;;;;;;5041329;28;19969;-70
2022/06/17 14:43:58;;;;;;;;;;;13.10;76.30;;;;;;5059873;28;19975;-70
2022/06/17 14:46:25;;;;;;;;;;;13.10;76.50;;;;;;5063574;28;19920;-70
2022/06/17 14:48:52;;;;;;;;;;;13.10;76.40;;;;;;5065791;28;20042;-70
2022/06/17 14:51:36;;;;;;;;;;;13.10;76.50;;;;;;5071576;28;19961;-70
2022/06/17 14:54:03;;;;;;;;;;;13.00;77.00;;;;;;5072036;28;20286;-70
2022/06/17 14:56:38;;;;;;;;;;;13.00;76.60;;;;;;5071546;28;19908;-70
2022/06/17 14:59:34;;;;;;;;;;;13.00;77.00;;;;;;5071621;28;20253;-70
2022/06/17 15:02:21;;;;;;;;;;;13.00;76.70;;;;;;5062547;28;19916;-70
2022/06/17 15:04:51;;;;;;;;;;;13.00;76.90;;;;;;5071728;28;19916;-70
2022/06/17 15:07:19;;;;;;;;;;;12.90;76.90;;;;;;5070171;28;20375;-70
2022/06/17 15:09:59;;;;;;;;;;;13.00;77.00;;;;;;5053445;28;19916;-70
2022/06/17 15:12:33;;;;;;;;;;;12.90;76.90;;;;;;5071648;28;20003;-70
2022/06/17 15:15:01;;;;;;;;;;;12.90;77.00;;;;;;5064812;28;19928;-70
2022/06/17 15:17:33;;;;;;;;;;;12.90;77.00;;;;;;5070662;28;20228;-70
2022/06/17 15:20:01;;;;;;;;;;;12.90;77.10;;;;;;5074103;28;19920;-70
2022/06/17 15:22:29;;;;;;;;;;;12.90;77.50;;;;;;5057943;28;20012;-70
2022/06/17 15:24:55;;;;;;;;;;;12.80;77.70;;;;;;5057882;28;19959;-70
2022/06/17 15:27:33;;;;;;;;;;;12.70;77.80;;;;;;5072630;28;20321;-70
2022/06/17 15:30:01;;;;;;;;;;;12.70;77.90;;;;;;5075058;28;19928;-70
2022/06/17 15:32:28;;;;;;;;;;;12.70;77.90;;;;;;5057432;28;19909;-70
2022/06/17 15:34:54;;;;;;;;;;;12.70;78.00;;;;;;5057594;28;20301;-70
2022/06/17 15:37:31;;;;;;;;;;;12.70;77.80;;;;;;5035967;28;19912;-70
2022/06/17 15:40:09;;;;;;;;;;;12.60;77.70;;;;;;5074896;28;20137;-70
2022/06/17 15:42:35;;;;;;;;;;;12.60;77.70;;;;;;5056850;28;20007;-70
2022/06/17 15:45:03;;;;;;;;;;;12.60;77.70;;;;;;5056942;28;20353;-70
2022/06/17 15:47:31;;;;;;;;;;;12.60;77.80;;;;;;5055201;28;20290;-70
2022/06/17 15:49:58;;;;;;;;;;;12.50;77.70;;;;;;5056599;28;19967;-70
2022/06/17 15:52:38;;;;;;;;;;;12.50;78.00;;;;;;5074828;28;20325;-70
2022/06/17 15:55:10;;;;;;;;;;;12.50;77.80;;;;;;5057539;28;19936;-70
2022/06/17 15:57:57;;;;;;;;;;;12.50;77.80;;;;;;5066868;28;19913;-70
2022/06/17 16:00:24;;;;;;;;;;;12.50;78.00;;;;;;5072029;28;20382;-70
2022/06/17 16:02:51;;;;;;;;;;;12.50;77.90;;;;;;5073850;28;19916;-71
2022/06/17 16:05:40;;;;;;;;;;;12.40;77.90;;;;;;5056338;28;20359;-71
2022/06/17 16:08:08;;;;;;;;;;;12.40;78.00;;;;;;5073348;28;19920;-71
2022/06/17 16:10:35;;;;;;;;;;;12.40;77.90;;;;;;5056245;28;19947;-71
2022/06/17 16:13:24;;;;;;;;;;;12.40;77.80;;;;;;5074667;28;19908;-71
2022/06/17 16:16:00;;;;;;;;;;;12.40;77.80;;;;;;5060871;28;19920;-71
2022/06/17 16:18:26;;;;;;;;;;;12.40;77.90;;;;;;5068991;28;19912;-71
2022/06/17 16:20:53;;;;;;;;;;;12.40;77.80;;;;;;5074569;28;19939;-71
2022/06/17 16:23:39;;;;;;;;;;;12.40;77.80;;;;;;5056748;28;19908;-71
2022/06/17 16:26:15;;;;;;;;;;;12.40;77.80;;;;;;5049357;28;20377;-71
2022/06/17 16:28:42;;;;;;;;;;;12.40;78.00;;;;;;5055814;28;20337;-71
2022/06/17 16:31:18;;;;;;;;;;;12.40;78.50;;;;;;5039974;28;20035;-71
2022/06/17 16:33:47;;;;;;;;;;;12.40;78.20;;;;;;5056440;28;19908;-71
2022/06/17 16:36:13;;;;;;;;;;;12.40;78.30;;;;;;5038967;28;19920;-71
2022/06/17 16:38:41;;;;;;;;;;;12.40;78.30;;;;;;5055541;28;19913;-71
2022/06/17 16:44:09;;;;;;;;;;;12.50;78.20;;;;;;5062474;28;19915;-71
2022/06/17 16:46:35;;;;;;;;;;;12.50;77.90;;;;;;5072645;28;19944;-71
2022/06/17 16:49:03;;;;;;;;;;;12.50;78.00;;;;;;5061515;28;19969;-71
2022/06/17 16:51:30;;;;;;;;;;;12.50;77.90;;;;;;5056157;28;19947;-71
2022/06/17 16:53:58;;;;;;;;;;;12.50;77.90;;;;;;5039311;28;19999;-71
2022/06/17 16:56:28;;;;;;;;;;;12.50;77.90;;;;;;5073774;28;19912;-71
2022/06/17 16:58:55;;;;;;;;;;;12.50;77.90;;;;;;5055275;28;19917;-70
2022/06/17 17:01:22;;;;;;;;;;;12.50;78.20;;;;;;5055871;28;20369;-71
2022/06/17 17:03:48;;;;;;;;;;;12.50;78.10;;;;;;5073657;28;19991;-71
2022/06/17 17:06:16;;;;;;;;;;;12.60;78.10;;;;;;5055884;28;19970;-72
2022/06/17 17:08:43;;;;;;;;;;;12.50;77.90;;;;;;5037503;28;19916;-70
2022/06/17 17:11:09;;;;;;;;;;;12.60;77.80;;;;;;5053601;28;19924;-71
2022/06/17 17:13:36;;;;;;;;;;;12.60;77.60;;;;;;5073214;28;19999;-71
2022/06/17 17:16:03;;;;;;;;;;;12.60;77.60;;;;;;5073123;28;19982;-71
2022/06/17 17:18:29;;;;;;;;;;;12.70;77.50;;;;;;5052038;28;20260;-71
2022/06/17 17:21:00;;;;;;;;;;;12.70;77.40;;;;;;5055158;28;20477;-71
2022/06/17 17:23:27;;;;;;;;;;;12.70;77.30;;;;;;5072817;28;19920;-71
2022/06/17 17:25:54;;;;;;;;;;;12.70;77.20;;;;;;5052998;28;19990;-71
2022/06/17 17:28:21;;;;;;;;;;;12.70;77.00;;;;;;5067667;28;19912;-71
2022/06/17 17:30:48;;;;;;;;;;;12.80;76.80;;;;;;5076180;28;20446;-71
2022/06/17 17:33:15;;;;;;;;;;;12.80;76.60;;;;;;5087669;28;19947;-71
2022/06/17 17:35:42;;;;;;;;;;;12.80;76.60;;;;;;5056270;28;19916;-71
2022/06/17 17:38:09;;;;;;;;;;;12.80;76.40;;;;;;5071097;28;19912;-70
2022/06/17 17:40:35;;;;;;;;;;;12.80;76.20;;;;;;5085240;28;19908;-71
2022/06/17 17:43:02;;;;;;;;;;;12.80;76.10;;;;;;5070931;28;19962;-70
2022/06/17 17:45:31;;;;;;;;;;;12.80;75.80;;;;;;5082908;28;19908;-71
2022/06/17 17:47:57;;;;;;;;;;;12.80;76.00;;;;;;5075769;28;20398;-71
2022/06/17 17:50:24;;;;;;;;;;;12.80;75.90;;;;;;5092898;28;19923;-71
2022/06/17 17:52:51;;;;;;;;;;;12.80;75.90;;;;;;5092663;28;20508;-70
2022/06/17 17:55:18;;;;;;;;;;;12.80;75.90;;;;;;5088092;28;19952;-71
2022/06/17 17:57:45;;;;;;;;;;;12.80;75.90;;;;;;5074411;28;20003;-70
2022/06/17 18:00:19;;;;;;;;;;;12.80;75.90;;;;;;5071088;28;19931;-70
2022/06/17 18:02:45;;;;;;;;;;;12.80;75.90;;;;;;5080402;28;20094;-70
2022/06/17 18:05:12;;;;;;;;;;;12.90;75.80;;;;;;5078514;28;19908;-70
2022/06/17 18:07:39;;;;;;;;;;;12.80;75.90;;;;;;5058400;28;20268;-70
2022/06/17 18:10:06;;;;;;;;;;;12.80;75.80;;;;;;5084429;28;19924;-71
2022/06/17 18:12:33;;;;;;;;;;;12.80;75.60;;;;;;5074633;28;19965;-71
2022/06/17 18:15:00;;;;;;;;;;;12.80;75.50;;;;;;5091974;28;20020;-70
2022/06/17 18:17:27;;;;;;;;;;;12.90;75.50;;;;;;5080266;28;19956;-70
2022/06/17 18:19:53;;;;;;;;;;;12.80;75.40;;;;;;5078132;28;19920;-70
2022/06/17 18:22:21;;;;;;;;;;;12.80;75.40;;;;;;5092088;28;19916;-71
2022/06/17 18:24:48;;;;;;;;;;;12.80;75.30;;;;;;5074752;28;19994;-70
2022/06/17 18:27:16;;;;;;;;;;;12.80;75.30;;;;;;5058949;28;19964;-70
2022/06/17 18:29:42;;;;;;;;;;;12.80;75.40;;;;;;5074216;28;20007;-70
2022/06/17 18:32:09;;;;;;;;;;;12.80;75.50;;;;;;5091999;28;20278;-70
2022/06/17 18:34:46;;;;;;;;;;;12.70;75.40;;;;;;5085261;28;19931;-71
2022/06/17 18:37:13;;;;;;;;;;;12.70;75.40;;;;;;5051173;28;20282;-70
2022/06/17 18:39:39;;;;;;;;;;;12.70;75.40;;;;;;5072352;28;19919;-70
2022/06/17 18:44:51;;;;;;;;;;;12.70;75.60;;;;;;5082273;22;20063;-65
2022/06/17 18:47:17;;;;;;;;;;;12.70;75.70;;;;;;5056847;28;19925;-67
2022/06/17 18:49:44;;;;;;;;;;;12.70;75.80;;;;;;5054810;28;19921;-67
2022/06/17 18:52:11;;;;;;;;;;;12.70;76.30;;;;;;5067658;28;20363;-67
2022/06/17 18:54:38;;;;;;;;;;;12.60;76.50;;;;;;5075969;28;19953;-67
2022/06/17 18:57:05;;;;;;;;;;;12.60;76.70;;;;;;5071523;28;19908;-67
2022/06/17 18:59:32;;;;;;;;;;;12.60;77.30;;;;;;5067825;28;19938;-67
2022/06/17 19:01:58;;;;;;;;;;;12.60;77.00;;;;;;5075841;28;20014;-67
2022/06/17 19:04:26;;;;;;;;;;;12.60;76.90;;;;;;5057964;28;19908;-67
2022/06/17 19:06:52;;;;;;;;;;;12.60;76.70;;;;;;5061876;28;19923;-67
2022/06/17 19:17:40;;;;;;;;;;;12.60;75.70;;;;;;5062526;28;19968;-67
2022/06/17 19:20:17;;;;;;;;;;;12.60;75.70;;;;;;5070051;28;19909;-67
2022/06/17 19:22:48;;;;;;;;;;;12.60;75.60;;;;;;5029893;28;19913;-67
2022/06/17 19:25:15;;;;;;;;;;;12.60;75.80;;;;;;5048540;28;19921;-66
2022/06/17 19:27:42;;;;;;;;;;;12.60;75.70;;;;;;5040719;28;19917;-67
2022/06/17 19:30:09;;;;;;;;;;;12.60;75.70;;;;;;5049832;28;19940;-67
2022/06/17 19:32:38;;;;;;;;;;;12.50;75.50;;;;;;5052736;28;20392;-66
2022/06/17 19:35:07;;;;;;;;;;;12.50;75.40;;;;;;5053362;28;19919;-66
2022/06/17 19:37:34;;;;;;;;;;;12.60;75.30;;;;;;5031062;28;19917;-65
2022/06/17 19:40:03;;;;;;;;;;;12.60;75.10;;;;;;5049934;28;19991;-65
2022/06/17 19:42:30;;;;;;;;;;;12.60;74.80;;;;;;5048245;28;20285;-65
